createdAt,value
2022-11-15T00:01:30.135Z,5.22
2022-11-15T00:04:15.580Z,4.70
2022-11-15T00:07:01.150Z,5.70
2022-11-15T00:09:46.619Z,4.55
2022-11-15T00:12:31.835Z,4.68
2022-11-15T00:15:17.497Z,5.18
2022-11-15T00:18:03.308Z,5.20
2022-11-15T00:20:48.608Z,5.30
2022-11-15T00:23:34.906Z,5.00
2022-11-15T00:26:19.860Z,4.90
2022-11-15T00:29:05.171Z,5.35
2022-11-15T00:31:50.508Z,5.32
2022-11-15T00:34:35.573Z,5.88
2022-11-15T00:37:20.851Z,5.65
2022-11-15T00:40:07.005Z,5.60
2022-11-15T00:42:52.239Z,4.78
2022-11-15T00:45:37.133Z,5.18
2022-11-15T00:48:22.511Z,5.78
2022-11-15T00:51:07.593Z,5.30
2022-11-15T00:53:53.108Z,5.10
2022-11-15T00:56:38.567Z,4.93
2022-11-15T00:59:23.737Z,4.80
2022-11-15T01:02:09.243Z,4.57
2022-11-15T01:04:54.677Z,4.97
2022-11-15T01:07:40.013Z,5.20
2022-11-15T01:10:26.751Z,4.65
2022-11-15T01:13:12.076Z,5.53
2022-11-15T01:15:57.655Z,4.72
2022-11-15T01:18:42.924Z,5.38
2022-11-15T01:21:28.193Z,4.38
2022-11-15T01:24:14.138Z,4.53
2022-11-15T01:27:00.438Z,4.15
2022-11-15T01:29:45.469Z,4.68
2022-11-15T01:32:30.820Z,4.55
2022-11-15T01:35:16.216Z,4.00
2022-11-15T01:38:01.528Z,4.60
2022-11-15T01:40:47.137Z,4.88
2022-11-15T01:43:37.535Z,4.80
2022-11-15T01:46:22.733Z,5.35
2022-11-15T01:49:15.507Z,4.75
2022-11-15T01:52:03.182Z,4.57
2022-11-15T01:54:54.254Z,4.28
2022-11-15T01:57:42.665Z,4.78
2022-11-15T02:00:29.201Z,4.78
2022-11-15T02:03:14.871Z,4.63
2022-11-15T02:06:00.182Z,4.53
2022-11-15T02:08:45.665Z,4.38
2022-11-15T02:11:31.128Z,4.85
2022-11-15T02:14:19.835Z,5.20
2022-11-15T02:17:18.274Z,4.15
2022-11-15T02:20:25.238Z,4.65
2022-11-15T02:23:47.254Z,5.07
2022-11-15T02:26:54.102Z,4.97
2022-11-15T02:29:58.018Z,4.43
2022-11-15T02:32:55.519Z,4.93
2022-11-15T02:36:19.630Z,6.07
2022-11-15T02:39:15.234Z,5.22
2022-11-15T02:42:28.651Z,4.95
2022-11-15T02:45:20.475Z,4.93
2022-11-15T02:48:08.318Z,5.07
2022-11-15T02:50:53.884Z,5.22
2022-11-15T02:53:39.191Z,5.05
2022-11-15T02:56:24.338Z,5.43
2022-11-15T02:59:23.035Z,5.50
2022-11-15T03:02:33.140Z,5.68
2022-11-15T03:05:43.146Z,5.03
2022-11-15T03:08:49.534Z,5.82
2022-11-15T03:11:42.371Z,5.10
2022-11-15T03:14:38.900Z,4.78
2022-11-15T03:17:31.214Z,5.50
2022-11-15T03:20:18.873Z,5.32
2022-11-15T03:23:10.298Z,5.43
2022-11-15T03:25:57.434Z,4.95
2022-11-15T03:28:51.455Z,5.13
2022-11-15T03:34:56.209Z,4.72
2022-11-15T03:37:47.524Z,5.63
2022-11-15T03:40:41.719Z,4.20
2022-11-15T03:43:48.246Z,4.93
2022-11-15T03:46:40.412Z,5.15
2022-11-15T03:49:37.779Z,5.20
2022-11-15T03:52:23.839Z,4.78
2022-11-15T03:55:13.785Z,4.22
2022-11-15T03:58:01.191Z,4.18
2022-11-15T04:00:47.006Z,4.10
2022-11-15T04:03:32.374Z,4.63
2022-11-15T04:06:17.951Z,4.13
2022-11-15T04:09:03.703Z,4.57
2022-11-15T04:11:48.979Z,5.22
2022-11-15T04:14:34.047Z,4.38
2022-11-15T04:17:19.286Z,4.40
2022-11-15T04:20:32.599Z,4.40
2022-11-15T04:23:39.505Z,4.45
2022-11-15T04:26:24.900Z,3.90
2022-11-15T04:29:29.007Z,4.40
2022-11-15T04:32:14.433Z,4.43
2022-11-15T04:34:59.845Z,3.88
2022-11-15T04:37:49.157Z,4.38
2022-11-15T04:40:35.120Z,4.22
2022-11-15T04:43:20.349Z,3.97
2022-11-15T04:46:05.901Z,3.78
2022-11-15T04:48:56.967Z,4.95
2022-11-15T04:51:43.442Z,3.80
2022-11-15T04:54:29.073Z,3.80
2022-11-15T04:57:15.190Z,3.78
2022-11-15T05:00:00.043Z,3.63
2022-11-15T05:03:03.981Z,3.65
2022-11-15T05:05:49.378Z,3.30
2022-11-15T05:08:35.008Z,3.78
2022-11-15T05:11:21.469Z,3.70
2022-11-15T05:14:06.718Z,3.85
2022-11-15T05:16:51.712Z,3.60
2022-11-15T05:19:37.928Z,4.00
2022-11-15T05:22:23.605Z,3.83
2022-11-15T05:25:09.379Z,4.03
2022-11-15T05:27:55.110Z,4.20
2022-11-15T05:30:40.769Z,4.05
2022-11-15T05:33:25.925Z,4.13
2022-11-15T05:36:26.708Z,4.30
2022-11-15T05:39:12.604Z,3.92
2022-11-15T05:42:06.804Z,4.20
2022-11-15T05:47:40.050Z,4.03
2022-11-15T05:50:25.913Z,4.40
2022-11-15T05:53:13.600Z,3.90
2022-11-15T05:55:58.945Z,4.13
2022-11-15T05:58:44.304Z,4.63
2022-11-15T06:01:29.820Z,4.00
2022-11-15T06:04:16.262Z,4.93
2022-11-15T06:07:01.272Z,4.15
2022-11-15T06:09:47.462Z,4.43
2022-11-15T06:12:32.390Z,4.60
2022-11-15T06:15:17.520Z,3.88
2022-11-15T06:18:02.835Z,4.28
2022-11-15T06:20:47.560Z,3.92
2022-11-15T06:23:34.918Z,4.03
2022-11-15T06:26:20.315Z,4.22
2022-11-15T06:29:06.016Z,4.07
2022-11-15T06:31:51.129Z,3.65
2022-11-15T06:34:36.879Z,4.05
2022-11-15T06:37:22.039Z,4.20
2022-11-15T06:40:09.672Z,4.10
2022-11-15T06:43:04.799Z,3.53
2022-11-15T06:45:50.371Z,4.40
2022-11-15T06:48:37.093Z,4.70
2022-11-15T06:51:22.811Z,4.22
2022-11-15T06:54:08.540Z,4.10
2022-11-15T06:56:53.512Z,4.07
2022-11-15T06:59:40.588Z,4.00
2022-11-15T07:02:25.817Z,3.88
2022-11-15T07:05:11.995Z,3.60
2022-11-15T07:07:58.611Z,3.58
2022-11-15T07:10:43.575Z,3.50
2022-11-15T07:13:34.812Z,3.58
2022-11-15T07:16:20.073Z,3.95
2022-11-15T07:19:05.462Z,3.53
2022-11-15T07:21:50.662Z,3.67
2022-11-15T07:24:35.934Z,3.40
2022-11-15T07:27:20.966Z,3.10
2022-11-15T07:30:07.249Z,3.45
2022-11-15T07:32:59.514Z,2.83
2022-11-15T07:35:47.342Z,3.28
2022-11-15T07:38:36.894Z,2.83
2022-11-15T07:41:26.708Z,3.08
2022-11-15T07:44:11.749Z,2.80
2022-11-15T07:46:56.639Z,2.50
2022-11-15T07:49:42.191Z,2.80
2022-11-15T07:52:27.416Z,2.97
2022-11-15T07:55:12.784Z,3.20
2022-11-15T07:58:12.036Z,2.92
2022-11-15T08:00:57.515Z,3.03
2022-11-15T08:03:42.737Z,3.20
2022-11-15T08:06:27.884Z,3.25
2022-11-15T08:09:12.942Z,2.65
2022-11-15T08:11:57.959Z,3.25
2022-11-15T08:14:44.226Z,2.97
2022-11-15T08:17:33.055Z,3.47
2022-11-15T08:20:18.025Z,3.33
2022-11-15T08:23:05.142Z,2.97
2022-11-15T08:25:50.330Z,2.95
2022-11-15T08:28:35.328Z,3.10
2022-11-15T08:31:20.579Z,2.78
2022-11-15T08:34:07.121Z,2.83
2022-11-15T08:36:52.225Z,2.90
2022-11-15T08:39:38.980Z,4.78
2022-11-15T08:42:24.323Z,3.42
2022-11-15T08:45:10.181Z,2.90
2022-11-15T08:47:55.767Z,2.22
2022-11-15T08:50:41.212Z,2.45
2022-11-15T08:53:27.485Z,2.55
2022-11-15T08:56:14.146Z,2.90
2022-11-15T08:58:59.523Z,2.88
2022-11-15T09:01:44.832Z,2.50
2022-11-15T09:04:29.888Z,2.50
2022-11-15T09:07:15.434Z,2.40
2022-11-15T09:10:01.025Z,2.40
2022-11-15T09:12:49.244Z,2.30
2022-11-15T09:15:34.659Z,2.30
2022-11-15T09:18:22.384Z,2.05
2022-11-15T09:21:07.860Z,1.77
2022-11-15T09:23:53.513Z,1.77
2022-11-15T09:26:38.848Z,1.92
2022-11-15T09:29:24.356Z,1.73
2022-11-15T09:32:10.025Z,2.03
2022-11-15T09:34:55.559Z,1.70
2022-11-15T09:37:40.861Z,1.77
2022-11-15T09:40:27.165Z,1.80
2022-11-15T09:43:44.457Z,1.45
2022-11-15T09:46:49.105Z,2.00
2022-11-15T09:49:19.779Z,1.58
2022-11-15T09:52:01.759Z,1.48
2022-11-15T09:54:52.821Z,1.77
2022-11-15T09:57:33.658Z,1.70
2022-11-15T10:03:08.783Z,1.70
2022-11-15T10:05:41.758Z,1.58
2022-11-15T10:08:33.630Z,1.50
2022-11-15T10:11:35.511Z,1.60
2022-11-15T10:13:53.676Z,1.58
2022-11-15T10:16:26.195Z,1.23
2022-11-15T10:19:24.259Z,1.60
2022-11-15T10:22:26.984Z,1.38
2022-11-15T10:25:10.702Z,1.20
2022-11-15T10:27:37.526Z,1.08
2022-11-15T10:30:11.297Z,1.42
2022-11-15T10:32:37.874Z,1.45
2022-11-15T10:35:30.146Z,1.50
2022-11-15T10:38:08.898Z,1.38
2022-11-15T10:40:36.882Z,1.17
2022-11-15T10:43:15.054Z,1.63
2022-11-15T10:45:42.059Z,1.38
2022-11-15T10:48:14.632Z,1.40
2022-11-15T10:50:43.409Z,1.30
2022-11-15T10:53:25.261Z,1.15
2022-11-15T10:55:55.960Z,1.60
2022-11-15T10:58:33.369Z,1.08
2022-11-15T11:01:11.581Z,1.25
2022-11-15T11:03:40.186Z,1.10
2022-11-15T11:08:57.682Z,0.93
2022-11-15T11:11:25.770Z,1.58
2022-11-15T11:13:52.966Z,1.17
2022-11-15T11:16:45.697Z,1.38
2022-11-15T11:19:31.411Z,1.15
2022-11-15T11:22:23.212Z,1.30
2022-11-15T11:25:28.087Z,1.40
2022-11-15T11:28:17.841Z,1.10
2022-11-15T11:30:50.339Z,1.10
2022-11-15T11:33:29.606Z,1.00
2022-11-15T11:36:22.907Z,0.98
2022-11-15T11:38:59.081Z,1.02
2022-11-15T11:41:45.198Z,1.00
2022-11-15T11:44:33.450Z,1.17
2022-11-15T11:47:20.412Z,1.13
2022-11-15T11:49:55.860Z,0.80
2022-11-15T11:52:39.108Z,1.30
2022-11-15T11:55:26.974Z,1.42
2022-11-15T11:58:11.193Z,1.00
2022-11-15T12:00:46.463Z,0.85
2022-11-15T12:03:43.907Z,0.75
2022-11-15T12:06:33.438Z,1.08
2022-11-15T12:09:21.946Z,0.90
2022-11-15T12:12:19.520Z,1.13
2022-11-15T12:14:54.631Z,0.90
2022-11-15T12:17:25.370Z,0.93
2022-11-15T12:19:57.165Z,0.90
2022-11-15T12:22:44.397Z,1.20
2022-11-15T12:25:26.612Z,0.95
2022-11-15T12:28:33.529Z,0.88
2022-11-15T12:31:04.468Z,0.80
2022-11-15T12:33:49.013Z,0.90
2022-11-15T12:36:22.729Z,1.00
2022-11-15T12:38:56.187Z,1.17
2022-11-15T12:41:29.325Z,0.75
2022-11-15T12:43:56.814Z,0.95
2022-11-15T12:46:29.860Z,0.90
2022-11-15T12:49:20.921Z,0.82
2022-11-15T12:51:51.965Z,0.95
2022-11-15T12:54:24.641Z,1.00
2022-11-15T12:57:09.191Z,1.13
2022-11-15T13:00:05.214Z,1.27
2022-11-15T13:02:41.057Z,0.90
2022-11-15T13:05:17.241Z,0.95
2022-11-15T13:07:43.963Z,0.80
2022-11-15T13:10:13.970Z,0.80
2022-11-15T13:12:46.633Z,1.08
2022-11-15T13:15:13.361Z,0.75
2022-11-15T13:17:46.508Z,1.17
2022-11-15T13:20:16.012Z,1.00
2022-11-15T13:22:55.436Z,1.02
2022-11-15T13:26:00.684Z,1.10
2022-11-15T13:28:42.154Z,0.95
2022-11-15T13:31:32.736Z,0.98
2022-11-15T13:34:03.350Z,1.20
2022-11-15T13:36:35.347Z,1.15
2022-11-15T13:39:05.263Z,1.17
2022-11-15T13:41:37.323Z,1.00
2022-11-15T13:44:05.519Z,1.10
2022-11-15T13:46:34.317Z,1.02
2022-11-15T13:49:04.929Z,0.80
2022-11-15T13:51:39.670Z,0.95
2022-11-15T13:54:39.222Z,0.85
2022-11-15T13:57:30.756Z,0.88
2022-11-15T14:00:04.255Z,1.02
2022-11-15T14:02:39.049Z,1.00
2022-11-15T14:05:16.739Z,1.38
2022-11-15T14:08:12.429Z,1.23
2022-11-15T14:10:40.023Z,0.80
2022-11-15T14:13:30.962Z,0.90
2022-11-15T14:16:21.212Z,1.10
2022-11-15T14:18:54.575Z,0.90
2022-11-15T14:21:21.396Z,1.02
2022-11-15T14:23:49.917Z,1.30
2022-11-15T14:29:28.923Z,1.27
2022-11-15T14:32:19.115Z,1.20
2022-11-15T14:34:46.469Z,1.23
2022-11-15T14:37:35.646Z,1.50
2022-11-15T14:40:07.081Z,1.02
2022-11-15T14:42:33.640Z,1.52
2022-11-15T14:45:00.116Z,1.42
2022-11-15T14:47:26.702Z,1.58
2022-11-15T14:49:53.237Z,1.50
2022-11-15T14:52:35.214Z,1.30
2022-11-15T14:55:13.094Z,1.67
2022-11-15T14:57:39.616Z,1.75
2022-11-15T15:00:06.813Z,1.50
2022-11-15T15:02:41.585Z,1.95
2022-11-15T15:05:20.696Z,2.13
2022-11-15T15:07:48.176Z,1.75
2022-11-15T15:10:40.223Z,2.10
2022-11-15T15:13:04.950Z,2.05
2022-11-15T15:15:37.219Z,2.20
2022-11-15T15:18:07.163Z,1.63
2022-11-15T15:20:33.903Z,1.88
2022-11-15T15:23:00.538Z,1.73
2022-11-15T15:25:32.778Z,2.20
2022-11-15T15:28:00.098Z,1.83
2022-11-15T15:30:28.906Z,1.88
2022-11-15T15:32:55.891Z,1.70
2022-11-15T15:35:22.947Z,1.98
2022-11-15T15:37:51.024Z,1.75
2022-11-15T15:40:23.313Z,1.60
2022-11-15T15:42:50.433Z,1.77
2022-11-15T15:45:18.442Z,1.85
2022-11-15T15:47:46.931Z,1.70
2022-11-15T15:53:03.315Z,1.65
2022-11-15T15:55:30.184Z,2.00
2022-11-15T15:57:57.296Z,1.67
2022-11-15T16:00:25.903Z,2.00
2022-11-15T16:02:53.745Z,1.83
2022-11-15T16:05:20.402Z,1.83
2022-11-15T16:07:48.467Z,1.80
2022-11-15T16:10:20.311Z,2.70
2022-11-15T16:12:47.843Z,2.03
2022-11-15T16:15:15.104Z,1.85
2022-11-15T16:17:46.530Z,2.15
2022-11-15T16:20:38.293Z,1.70
2022-11-15T16:23:10.381Z,1.90
2022-11-15T16:25:49.149Z,1.77
2022-11-15T16:28:23.726Z,1.90
2022-11-15T16:31:00.185Z,1.45
2022-11-15T16:33:26.951Z,1.52
2022-11-15T16:35:53.465Z,2.33
2022-11-15T16:38:20.444Z,1.92
2022-11-15T16:40:47.151Z,2.17
2022-11-15T16:43:13.660Z,1.77
2022-11-15T16:45:40.389Z,1.70
2022-11-15T16:48:06.850Z,1.65
2022-11-15T16:50:41.032Z,1.50
2022-11-15T16:53:07.796Z,2.00
2022-11-15T16:55:34.476Z,2.13
2022-11-15T16:58:01.972Z,1.90
2022-11-15T17:00:28.645Z,1.58
2022-11-15T17:02:56.039Z,2.00
2022-11-15T17:05:24.338Z,1.65
2022-11-15T17:07:55.309Z,1.75
2022-11-15T17:10:23.165Z,1.80
2022-11-15T17:12:51.010Z,1.83
2022-11-15T17:15:18.371Z,1.75
2022-11-15T17:17:45.329Z,1.75
2022-11-15T17:20:17.657Z,1.63
2022-11-15T17:22:44.172Z,1.60
2022-11-15T17:25:11.114Z,1.75
2022-11-15T17:27:37.621Z,1.85
2022-11-15T17:30:05.044Z,1.80
2022-11-15T17:32:31.483Z,1.63
2022-11-15T17:34:58.238Z,1.73
2022-11-15T17:37:24.758Z,1.55
2022-11-15T17:39:51.261Z,1.67
2022-11-15T17:42:17.853Z,1.50
2022-11-15T17:44:44.228Z,1.73
2022-11-15T17:47:10.667Z,1.48
2022-11-15T17:49:39.420Z,2.40
2022-11-15T17:52:06.150Z,1.60
2022-11-15T17:54:32.841Z,2.08
2022-11-15T17:56:59.515Z,1.48
2022-11-15T17:59:26.110Z,1.95
2022-11-15T18:01:54.004Z,2.00
2022-11-15T18:04:21.182Z,2.25
2022-11-15T18:06:47.702Z,1.98
2022-11-15T18:09:14.445Z,1.70
2022-11-15T18:11:43.081Z,2.10
2022-11-15T18:14:14.393Z,1.80
2022-11-15T18:16:41.501Z,1.83
2022-11-15T18:19:13.071Z,1.60
2022-11-15T18:21:56.835Z,1.60
2022-11-15T18:24:28.452Z,1.65
2022-11-15T18:26:55.525Z,1.90
2022-11-15T18:29:24.632Z,1.77
2022-11-15T18:31:55.403Z,2.42
2022-11-15T18:34:32.129Z,1.88
2022-11-15T18:36:59.962Z,2.10
2022-11-15T18:39:26.607Z,1.77
2022-11-15T18:41:53.227Z,2.10
2022-11-15T18:44:20.293Z,2.13
2022-11-15T18:46:46.902Z,2.53
2022-11-15T18:49:15.125Z,2.08
2022-11-15T18:51:41.882Z,2.05
2022-11-15T18:54:13.674Z,2.00
2022-11-15T18:56:40.870Z,1.98
2022-11-15T18:59:08.861Z,2.47
2022-11-15T19:01:38.568Z,2.20
2022-11-15T19:04:08.267Z,2.50
2022-11-15T19:06:38.871Z,2.25
2022-11-15T19:09:05.615Z,2.13
2022-11-15T19:11:35.857Z,2.75
2022-11-15T19:14:05.332Z,2.75
2022-11-15T19:16:33.939Z,2.85
2022-11-15T19:19:04.909Z,2.78
2022-11-15T19:21:31.700Z,2.50
2022-11-15T19:23:59.831Z,2.70
2022-11-15T19:26:27.701Z,2.90
2022-11-15T19:29:05.304Z,3.15
2022-11-15T19:31:32.224Z,2.55
2022-11-15T19:34:00.868Z,3.30
2022-11-15T19:36:32.674Z,2.60
2022-11-15T19:39:01.248Z,2.97
2022-11-15T19:43:54.373Z,3.05
2022-11-15T19:46:23.569Z,3.45
2022-11-15T19:48:51.669Z,3.40
2022-11-15T19:51:24.651Z,2.97
2022-11-15T19:53:56.273Z,3.40
2022-11-15T19:56:23.138Z,3.45
2022-11-15T19:58:54.815Z,3.10
2022-11-15T20:01:27.338Z,2.95
2022-11-15T20:03:55.829Z,3.45
2022-11-15T20:06:25.481Z,2.75
2022-11-15T20:08:52.476Z,3.05
2022-11-15T20:11:19.756Z,2.92
2022-11-15T20:13:46.662Z,2.88
2022-11-15T20:16:21.793Z,2.92
2022-11-15T20:18:51.604Z,2.70
2022-11-15T20:21:18.098Z,3.00
2022-11-15T20:23:45.892Z,2.83
2022-11-15T20:26:15.255Z,2.95
2022-11-15T20:28:42.125Z,2.85
2022-11-15T20:31:10.062Z,3.10
2022-11-15T20:33:36.656Z,2.75
2022-11-15T20:36:11.114Z,3.25
2022-11-15T20:38:37.756Z,2.83
2022-11-15T20:41:04.300Z,3.08
2022-11-15T20:43:30.850Z,3.00
2022-11-15T20:45:57.423Z,2.90
2022-11-15T20:48:23.945Z,3.08
2022-11-15T20:50:50.602Z,3.00
2022-11-15T20:53:19.232Z,3.17
2022-11-15T20:58:18.128Z,3.30
2022-11-15T21:00:45.996Z,3.00
2022-11-15T21:03:14.496Z,3.03
2022-11-15T21:05:43.407Z,3.33
2022-11-15T21:08:11.434Z,3.47
2022-11-15T21:10:57.166Z,3.30
2022-11-15T21:13:24.088Z,2.92
2022-11-15T21:15:50.656Z,3.17
2022-11-15T21:18:17.587Z,3.13
2022-11-15T21:20:44.948Z,3.70
2022-11-15T21:23:12.270Z,3.13
2022-11-15T21:25:39.039Z,3.58
2022-11-15T21:28:05.649Z,2.58
2022-11-15T21:30:32.082Z,2.83
2022-11-15T21:32:58.805Z,2.97
2022-11-15T21:35:25.358Z,3.38
2022-11-15T21:37:56.448Z,2.55
2022-11-15T21:40:23.883Z,2.88
2022-11-15T21:42:50.606Z,2.83
2022-11-15T21:45:17.332Z,3.17
2022-11-15T21:47:46.396Z,2.97
2022-11-15T21:50:13.768Z,2.53
2022-11-15T21:52:41.009Z,3.03
2022-11-15T21:55:08.719Z,2.90
2022-11-15T21:57:35.747Z,2.65
2022-11-15T22:00:20.891Z,3.08
2022-11-15T22:02:47.572Z,2.80
2022-11-15T22:05:16.327Z,3.00
2022-11-15T22:07:42.805Z,2.72
2022-11-15T22:10:09.580Z,2.75
2022-11-15T22:12:38.515Z,2.63
2022-11-15T22:15:05.258Z,2.60
2022-11-15T22:17:50.127Z,2.85
2022-11-15T22:20:42.843Z,2.80
2022-11-15T22:23:04.408Z,2.60
2022-11-15T22:25:31.407Z,2.70
2022-11-15T22:27:58.253Z,2.65
2022-11-15T22:30:24.895Z,2.33
2022-11-15T22:32:51.438Z,2.38
2022-11-15T22:35:18.080Z,2.42
2022-11-15T22:37:44.705Z,2.60
2022-11-15T22:40:11.154Z,2.53
2022-11-15T22:42:37.769Z,2.38
2022-11-15T22:45:04.775Z,2.58
2022-11-15T22:47:31.418Z,2.58
2022-11-15T22:49:58.070Z,2.80
2022-11-15T22:52:24.659Z,2.47
2022-11-15T22:54:51.413Z,2.40
2022-11-15T22:57:18.118Z,2.30
2022-11-15T22:59:44.742Z,2.55
2022-11-15T23:02:11.224Z,2.75
2022-11-15T23:04:37.719Z,2.78
2022-11-15T23:07:04.242Z,2.72
2022-11-15T23:09:30.868Z,2.30
2022-11-15T23:12:16.061Z,2.80
2022-11-15T23:14:42.535Z,2.63
2022-11-15T23:17:09.104Z,2.97
2022-11-15T23:19:35.748Z,2.72
2022-11-15T23:22:21.181Z,2.72
2022-11-15T23:24:47.724Z,2.92
2022-11-15T23:27:19.717Z,2.97
2022-11-15T23:30:06.028Z,2.30
2022-11-15T23:32:51.349Z,2.50
2022-11-15T23:35:17.999Z,2.33
2022-11-15T23:37:44.760Z,2.45
2022-11-15T23:40:11.891Z,2.53
2022-11-15T23:42:38.384Z,2.47
2022-11-15T23:45:05.576Z,2.80
2022-11-15T23:47:32.189Z,2.97
2022-11-15T23:49:58.610Z,2.63
2022-11-15T23:52:25.584Z,2.30
2022-11-15T23:54:53.228Z,2.50
2022-11-15T23:57:19.696Z,2.50
2022-11-15T23:59:46.178Z,2.97
